sensor_id;sensor_type;location;lat;lon;timestamp;pressure;altitude;pressure_sealevel;temperature;humidity
75146;BME280;63641;46.526;24.612;2023-04-10T00:02:24;97664.44;;;2.80;67.23
75146;BME280;63641;46.526;24.612;2023-04-10T00:04:51;97666.75;;;2.77;67.15
75146;BME280;63641;46.526;24.612;2023-04-10T00:07:18;97663.34;;;2.70;67.28
75146;BME280;63641;46.526;24.612;2023-04-10T00:09:45;97681.44;;;2.67;67.66
75146;BME280;63641;46.526;24.612;2023-04-10T00:12:12;97675.94;;;2.62;67.56
75146;BME280;63641;46.526;24.612;2023-04-10T00:14:41;97666.50;;;2.60;67.66
75146;BME280;63641;46.526;24.612;2023-04-10T00:17:08;97667.75;;;2.57;67.57
75146;BME280;63641;46.526;24.612;2023-04-10T00:19:34;97665.81;;;2.46;67.47
75146;BME280;63641;46.526;24.612;2023-04-10T00:22:01;97670.97;;;2.48;67.62
75146;BME280;63641;46.526;24.612;2023-04-10T00:24:28;97676.50;;;2.46;67.53
75146;BME280;63641;46.526;24.612;2023-04-10T00:26:55;97671.81;;;2.41;67.86
75146;BME280;63641;46.526;24.612;2023-04-10T00:29:23;97666.34;;;2.36;67.66
75146;BME280;63641;46.526;24.612;2023-04-10T00:31:50;97673.75;;;2.34;67.62
75146;BME280;63641;46.526;24.612;2023-04-10T00:34:16;97671.31;;;2.33;67.71
75146;BME280;63641;46.526;24.612;2023-04-10T00:36:44;97662.31;;;2.27;67.84
75146;BME280;63641;46.526;24.612;2023-04-10T00:39:12;97654.16;;;2.22;67.81
75146;BME280;63641;46.526;24.612;2023-04-10T00:41:39;97663.22;;;2.21;67.92
75146;BME280;63641;46.526;24.612;2023-04-10T00:44:06;97653.59;;;2.13;67.83
75146;BME280;63641;46.526;24.612;2023-04-10T00:46:36;97671.66;;;2.18;68.38
75146;BME280;63641;46.526;24.612;2023-04-10T00:49:03;97656.72;;;2.10;68.45
75146;BME280;63641;46.526;24.612;2023-04-10T00:51:30;97656.72;;;2.10;68.31
75146;BME280;63641;46.526;24.612;2023-04-10T00:53:59;97655.88;;;2.10;68.23
75146;BME280;63641;46.526;24.612;2023-04-10T00:56:27;97656.94;;;2.09;68.68
75146;BME280;63641;46.526;24.612;2023-04-10T00:58:56;97651.22;;;2.05;68.49
75146;BME280;63641;46.526;24.612;2023-04-10T01:01:22;97645.91;;;1.99;68.74
75146;BME280;63641;46.526;24.612;2023-04-10T01:03:50;97656.97;;;2.02;68.50
75146;BME280;63641;46.526;24.612;2023-04-10T01:06:29;97645.72;;;2.00;68.32
75146;BME280;63641;46.526;24.612;2023-04-10T01:16:59;97639.72;;;1.80;68.40
75146;BME280;63641;46.526;24.612;2023-04-10T01:25:26;97637.47;;;1.77;68.45
75146;BME280;63641;46.526;24.612;2023-04-10T01:32:00;97642.88;;;1.70;68.61
75146;BME280;63641;46.526;24.612;2023-04-10T01:34:08;97635.91;;;1.69;68.30
75146;BME280;63641;46.526;24.612;2023-04-10T01:36:46;97636.75;;;1.69;68.29
75146;BME280;63641;46.526;24.612;2023-04-10T01:39:18;97643.75;;;1.64;67.84
75146;BME280;63641;46.526;24.612;2023-04-10T01:41:47;97639.25;;;1.58;68.31
75146;BME280;63641;46.526;24.612;2023-04-10T01:44:17;97636.66;;;1.51;68.16
75146;BME280;63641;46.526;24.612;2023-04-10T01:46:48;97640.97;;;1.52;68.52
75146;BME280;63641;46.526;24.612;2023-04-10T01:49:16;97642.19;;;1.50;68.62
75146;BME280;63641;46.526;24.612;2023-04-10T01:51:44;97646.72;;;1.49;68.81
75146;BME280;63641;46.526;24.612;2023-04-10T01:54:12;97631.56;;;1.43;68.64
75146;BME280;63641;46.526;24.612;2023-04-10T01:56:39;97638.56;;;1.44;68.58
75146;BME280;63641;46.526;24.612;2023-04-10T01:59:07;97643.88;;;1.44;68.72
75146;BME280;63641;46.526;24.612;2023-04-10T02:01:34;97638.97;;;1.41;68.83
75146;BME280;63641;46.526;24.612;2023-04-10T02:04:01;97637.56;;;1.38;69.11
75146;BME280;63641;46.526;24.612;2023-04-10T02:06:50;97641.66;;;1.41;68.95
75146;BME280;63641;46.526;24.612;2023-04-10T02:09:27;97645.31;;;1.40;68.92
75146;BME280;63641;46.526;24.612;2023-04-10T02:12:00;97635.69;;;1.39;68.58
75146;BME280;63641;46.526;24.612;2023-04-10T02:14:31;97631.25;;;1.33;68.94
75146;BME280;63641;46.526;24.612;2023-04-10T02:17:00;97631.66;;;1.30;68.93
75146;BME280;63641;46.526;24.612;2023-04-10T02:19:30;97633.31;;;1.24;68.77
75146;BME280;63641;46.526;24.612;2023-04-10T02:21:57;97637.63;;;1.25;69.10
75146;BME280;63641;46.526;24.612;2023-04-10T02:24:25;97635.41;;;1.22;68.94
75146;BME280;63641;46.526;24.612;2023-04-10T02:26:52;97630.69;;;1.17;69.31
75146;BME280;63641;46.526;24.612;2023-04-10T02:29:19;97629.50;;;1.13;69.09
75146;BME280;63641;46.526;24.612;2023-04-10T02:31:46;97630.94;;;1.09;69.30
75146;BME280;63641;46.526;24.612;2023-04-10T02:34:13;97610.13;;;1.00;69.51
75146;BME280;63641;46.526;24.612;2023-04-10T02:36:40;97622.78;;;1.04;69.52
75146;BME280;63641;46.526;24.612;2023-04-10T02:39:07;97628.13;;;1.04;69.65
75146;BME280;63641;46.526;24.612;2023-04-10T02:41:34;97625.88;;;1.01;69.38
75146;BME280;63641;46.526;24.612;2023-04-10T02:44:00;97633.25;;;0.99;69.23
75146;BME280;63641;46.526;24.612;2023-04-10T02:46:27;97638.56;;;0.99;69.26
75146;BME280;63641;46.526;24.612;2023-04-10T02:48:54;97624.06;;;0.88;69.33
75146;BME280;63641;46.526;24.612;2023-04-10T02:51:21;97639.22;;;0.94;69.51
75146;BME280;63641;46.526;24.612;2023-04-10T02:53:48;97633.50;;;0.91;69.52
75146;BME280;63641;46.526;24.612;2023-04-10T02:56:14;97630.44;;;0.87;69.42
75146;BME280;63641;46.526;24.612;2023-04-10T02:58:41;97635.56;;;0.89;69.68
75146;BME280;63641;46.526;24.612;2023-04-10T03:01:11;97633.53;;;0.84;69.44
75146;BME280;63641;46.526;24.612;2023-04-10T03:03:38;97627.59;;;0.82;69.52
75146;BME280;63641;46.526;24.612;2023-04-10T03:06:07;97631.09;;;0.83;69.39
75146;BME280;63641;46.526;24.612;2023-04-10T03:08:34;97626.41;;;0.78;69.59
75146;BME280;63641;46.526;24.612;2023-04-10T03:11:01;97638.69;;;0.79;69.60
75146;BME280;63641;46.526;24.612;2023-04-10T03:13:28;97628.66;;;0.75;69.30
75146;BME280;63641;46.526;24.612;2023-04-10T03:15:55;97630.69;;;0.72;69.49
75146;BME280;63641;46.526;24.612;2023-04-10T03:18:21;97630.13;;;0.70;69.20
75146;BME280;63641;46.526;24.612;2023-04-10T03:20:48;97624.97;;;0.69;69.59
75146;BME280;63641;46.526;24.612;2023-04-10T03:23:15;97628.69;;;0.68;69.58
75146;BME280;63641;46.526;24.612;2023-04-10T03:25:42;97635.22;;;0.65;69.52
75146;BME280;63641;46.526;24.612;2023-04-10T03:28:09;97628.31;;;0.58;69.36
75146;BME280;63641;46.526;24.612;2023-04-10T03:30:35;97630.97;;;0.58;69.72
75146;BME280;63641;46.526;24.612;2023-04-10T03:33:02;97628.72;;;0.55;69.52
75146;BME280;63641;46.526;24.612;2023-04-10T03:35:29;97635.88;;;0.54;69.46
75146;BME280;63641;46.526;24.612;2023-04-10T03:37:56;97616.69;;;0.39;69.60
75146;BME280;63641;46.526;24.612;2023-04-10T03:40:23;97634.09;;;0.48;69.51
75146;BME280;63641;46.526;24.612;2023-04-10T03:42:49;97609.13;;;0.29;69.66
75146;BME280;63641;46.526;24.612;2023-04-10T03:45:16;97649.63;;;0.51;69.45
75146;BME280;63641;46.526;24.612;2023-04-10T03:47:43;97632.41;;;0.47;69.56
75146;BME280;63641;46.526;24.612;2023-04-10T03:50:09;97646.34;;;0.49;69.66
75146;BME280;63641;46.526;24.612;2023-04-10T03:52:36;97643.50;;;0.44;69.89
75146;BME280;63641;46.526;24.612;2023-04-10T03:55:03;97640.66;;;0.39;69.58
75146;BME280;63641;46.526;24.612;2023-04-10T03:57:30;97643.94;;;0.41;69.69
75146;BME280;63641;46.526;24.612;2023-04-10T03:59:57;97647.19;;;0.36;70.16
75146;BME280;63641;46.526;24.612;2023-04-10T04:02:24;97644.53;;;0.36;69.80
75146;BME280;63641;46.526;24.612;2023-04-10T04:04:51;97641.47;;;0.33;69.91
75146;BME280;63641;46.526;24.612;2023-04-10T04:07:18;97637.19;;;0.32;69.75
75146;BME280;63641;46.526;24.612;2023-04-10T04:09:45;97643.94;;;0.34;69.70
75146;BME280;63641;46.526;24.612;2023-04-10T04:12:11;97635.94;;;0.34;69.73
75146;BME280;63641;46.526;24.612;2023-04-10T04:14:38;97645.97;;;0.39;69.75
75146;BME280;63641;46.526;24.612;2023-04-10T04:17:05;97634.31;;;0.33;69.95
75146;BME280;63641;46.526;24.612;2023-04-10T04:19:32;97652.09;;;0.39;70.07
75146;BME280;63641;46.526;24.612;2023-04-10T04:21:59;97645.16;;;0.38;69.86
75146;BME280;63641;46.526;24.612;2023-04-10T04:24:26;97641.69;;;0.38;70.37
75146;BME280;63641;46.526;24.612;2023-04-10T04:26:52;97635.13;;;0.34;70.19
75146;BME280;63641;46.526;24.612;2023-04-10T04:29:19;97654.56;;;0.41;70.33
75146;BME280;63641;46.526;24.612;2023-04-10T04:31:47;97643.72;;;0.42;70.26
75146;BME280;63641;46.526;24.612;2023-04-10T04:34:14;97643.72;;;0.42;70.49
75146;BME280;63641;46.526;24.612;2023-04-10T04:36:42;97645.97;;;0.45;70.32
75146;BME280;63641;46.526;24.612;2023-04-10T04:39:08;97642.66;;;0.43;70.38
75146;BME280;63641;46.526;24.612;2023-04-10T04:41:35;97653.13;;;0.45;70.45
75146;BME280;63641;46.526;24.612;2023-04-10T04:44:04;97655.97;;;0.50;70.73
75146;BME280;63641;46.526;24.612;2023-04-10T04:46:31;97649.22;;;0.47;70.58
75146;BME280;63641;46.526;24.612;2023-04-10T04:48:58;97651.69;;;0.49;70.50
75146;BME280;63641;46.526;24.612;2023-04-10T04:51:25;97659.66;;;0.49;70.75
75146;BME280;63641;46.526;24.612;2023-04-10T04:53:52;97663.53;;;0.53;70.64
75146;BME280;63641;46.526;24.612;2023-04-10T04:56:19;97659.03;;;0.54;70.54
75146;BME280;63641;46.526;24.612;2023-04-10T04:58:46;97658.22;;;0.53;70.45
75146;BME280;63641;46.526;24.612;2023-04-10T05:01:13;97665.56;;;0.58;70.71
75146;BME280;63641;46.526;24.612;2023-04-10T05:03:39;97659.66;;;0.56;71.28
75146;BME280;63641;46.526;24.612;2023-04-10T05:06:06;97660.25;;;0.58;71.07
75146;BME280;63641;46.526;24.612;2023-04-10T05:08:33;97661.88;;;0.65;71.04
75146;BME280;63641;46.526;24.612;2023-04-10T05:11:00;97661.28;;;0.63;71.16
75146;BME280;63641;46.526;24.612;2023-04-10T05:13:27;97654.91;;;0.64;71.24
75146;BME280;63641;46.526;24.612;2023-04-10T05:15:53;97647.72;;;0.71;71.03
75146;BME280;63641;46.526;24.612;2023-04-10T05:18:20;97651.19;;;0.72;71.42
75146;BME280;63641;46.526;24.612;2023-04-10T05:20:52;97657.53;;;0.78;71.44
75146;BME280;63641;46.526;24.612;2023-04-10T05:23:18;97655.47;;;0.80;71.26
75146;BME280;63641;46.526;24.612;2023-04-10T05:25:45;97660.56;;;0.88;71.31
75146;BME280;63641;46.526;24.612;2023-04-10T05:28:12;97660.13;;;0.91;71.58
75146;BME280;63641;46.526;24.612;2023-04-10T05:30:39;97655.44;;;0.93;71.75
75146;BME280;63641;46.526;24.612;2023-04-10T05:33:06;97652.34;;;0.96;71.58
75146;BME280;63641;46.526;24.612;2023-04-10T05:35:33;97651.09;;;0.99;72.10
75146;BME280;63641;46.526;24.612;2023-04-10T05:38:00;97658.00;;;1.06;72.17
75146;BME280;63641;46.526;24.612;2023-04-10T05:40:27;97650.03;;;1.06;72.37
75146;BME280;63641;46.526;24.612;2023-04-10T05:42:54;97646.53;;;1.12;72.38
75146;BME280;63641;46.526;24.612;2023-04-10T05:45:21;97656.13;;;1.20;72.65
75146;BME280;63641;46.526;24.612;2023-04-10T05:47:47;97655.03;;;1.28;72.43
75146;BME280;63641;46.526;24.612;2023-04-10T05:50:14;97661.16;;;1.35;72.55
75146;BME280;63641;46.526;24.612;2023-04-10T05:52:41;97638.63;;;1.31;72.98
75146;BME280;63641;46.526;24.612;2023-04-10T05:55:08;97654.31;;;1.45;73.21
75146;BME280;63641;46.526;24.612;2023-04-10T05:57:34;97647.13;;;1.46;73.22
75146;BME280;63641;46.526;24.612;2023-04-10T06:00:02;97650.31;;;1.61;73.05
75146;BME280;63641;46.526;24.612;2023-04-10T06:02:28;97628.81;;;1.56;73.40
75146;BME280;63641;46.526;24.612;2023-04-10T06:04:55;97652.91;;;1.75;73.32
75146;BME280;63641;46.526;24.612;2023-04-10T06:07:22;97651.00;;;1.82;73.74
75146;BME280;63641;46.526;24.612;2023-04-10T06:09:49;97645.81;;;1.87;73.75
75146;BME280;63641;46.526;24.612;2023-04-10T06:12:16;97643.09;;;1.93;73.95
75146;BME280;63641;46.526;24.612;2023-04-10T06:14:42;97649.34;;;2.06;73.78
75146;BME280;63641;46.526;24.612;2023-04-10T06:17:09;97642.34;;;2.11;73.91
75146;BME280;63641;46.526;24.612;2023-04-10T06:19:36;97642.44;;;2.23;74.08
75146;BME280;63641;46.526;24.612;2023-04-10T06:22:03;97640.50;;;2.30;73.93
75146;BME280;63641;46.526;24.612;2023-04-10T06:24:29;97642.69;;;2.40;73.94
75146;BME280;63641;46.526;24.612;2023-04-10T06:26:56;97645.06;;;2.48;73.96
75146;BME280;63641;46.526;24.612;2023-04-10T06:29:23;97646.56;;;2.62;74.05
75146;BME280;63641;46.526;24.612;2023-04-10T06:31:50;97645.81;;;2.74;74.02
75146;BME280;63641;46.526;24.612;2023-04-10T06:34:17;97646.31;;;2.82;74.12
75146;BME280;63641;46.526;24.612;2023-04-10T06:36:44;97641.19;;;2.99;74.02
75146;BME280;63641;46.526;24.612;2023-04-10T06:39:11;97651.25;;;3.15;74.03
75146;BME280;63641;46.526;24.612;2023-04-10T06:41:37;97639.34;;;3.30;73.36
75146;BME280;63641;46.526;24.612;2023-04-10T06:44:04;97643.22;;;3.46;73.38
75146;BME280;63641;46.526;24.612;2023-04-10T06:46:31;97639.69;;;3.63;73.06
75146;BME280;63641;46.526;24.612;2023-04-10T06:48:58;97631.22;;;3.78;73.22
75146;BME280;63641;46.526;24.612;2023-04-10T06:51:25;97631.47;;;4.00;72.72
75146;BME280;63641;46.526;24.612;2023-04-10T06:53:53;97614.03;;;4.09;72.50
75146;BME280;63641;46.526;24.612;2023-04-10T06:56:19;97630.09;;;4.45;72.30
75146;BME280;63641;46.526;24.612;2023-04-10T06:58:46;97628.22;;;4.69;71.73
75146;BME280;63641;46.526;24.612;2023-04-10T07:01:13;97623.13;;;4.96;71.00
75146;BME280;63641;46.526;24.612;2023-04-10T07:03:40;97622.41;;;5.29;70.57
75146;BME280;63641;46.526;24.612;2023-04-10T07:06:09;97618.91;;;5.57;70.07
75146;BME280;63641;46.526;24.612;2023-04-10T07:08:36;97638.31;;;5.93;70.05
75146;BME280;63641;46.526;24.612;2023-04-10T07:11:03;97626.78;;;6.26;69.37
75146;BME280;63641;46.526;24.612;2023-04-10T07:13:29;97620.78;;;6.58;68.96
75146;BME280;63641;46.526;24.612;2023-04-10T07:15:56;97622.22;;;6.87;68.39
75146;BME280;63641;46.526;24.612;2023-04-10T07:18:23;97622.59;;;7.18;68.18
75146;BME280;63641;46.526;24.612;2023-04-10T07:20:50;97623.19;;;7.47;67.53
75146;BME280;63641;46.526;24.612;2023-04-10T07:23:17;97599.97;;;7.68;66.74
75146;BME280;63641;46.526;24.612;2023-04-10T07:25:45;97613.16;;;8.02;65.90
75146;BME280;63641;46.526;24.612;2023-04-10T07:28:12;97617.66;;;8.23;65.41
75146;BME280;63641;46.526;24.612;2023-04-10T07:30:39;97606.50;;;8.46;64.84
75146;BME280;63641;46.526;24.612;2023-04-10T07:33:06;97614.72;;;8.67;63.58
75146;BME280;63641;46.526;24.612;2023-04-10T07:35:33;97617.00;;;8.90;63.20
75146;BME280;63641;46.526;24.612;2023-04-10T07:38:00;97618.69;;;9.12;62.73
75146;BME280;63641;46.526;24.612;2023-04-10T07:40:27;97609.31;;;9.35;62.74
75146;BME280;63641;46.526;24.612;2023-04-10T07:42:53;97615.59;;;9.66;62.26
75146;BME280;63641;46.526;24.612;2023-04-10T07:45:20;97606.72;;;9.96;61.21
75146;BME280;63641;46.526;24.612;2023-04-10T07:47:48;97612.41;;;10.20;60.75
75146;BME280;63641;46.526;24.612;2023-04-10T07:50:15;97614.56;;;10.38;59.68
75146;BME280;63641;46.526;24.612;2023-04-10T07:52:42;97604.53;;;10.54;59.27
75146;BME280;63641;46.526;24.612;2023-04-10T07:55:09;97599.31;;;10.78;58.77
75146;BME280;63641;46.526;24.612;2023-04-10T07:57:36;97595.97;;;11.07;58.06
75146;BME280;63641;46.526;24.612;2023-04-10T08:00:05;97590.41;;;11.32;57.20
75146;BME280;63641;46.526;24.612;2023-04-10T08:02:32;97588.66;;;11.52;56.69
75146;BME280;63641;46.526;24.612;2023-04-10T08:04:59;97582.38;;;11.61;56.06
75146;BME280;63641;46.526;24.612;2023-04-10T08:07:26;97593.63;;;11.84;55.54
75146;BME280;63641;46.526;24.612;2023-04-10T08:09:53;97584.53;;;12.04;54.79
75146;BME280;63641;46.526;24.612;2023-04-10T08:12:20;97587.00;;;12.29;54.81
75146;BME280;63641;46.526;24.612;2023-04-10T08:14:46;97582.78;;;12.47;53.96
75146;BME280;63641;46.526;24.612;2023-04-10T08:17:13;97582.38;;;12.59;53.45
75146;BME280;63641;46.526;24.612;2023-04-10T08:19:41;97588.00;;;12.68;53.52
75146;BME280;63641;46.526;24.612;2023-04-10T08:22:08;97585.41;;;12.81;53.11
75146;BME280;63641;46.526;24.612;2023-04-10T08:24:35;97579.56;;;12.93;53.27
75146;BME280;63641;46.526;24.612;2023-04-10T08:27:02;97578.03;;;13.06;52.62
75146;BME280;63641;46.526;24.612;2023-04-10T08:29:29;97579.81;;;13.16;51.96
75146;BME280;63641;46.526;24.612;2023-04-10T08:31:56;97563.22;;;13.17;51.06
75146;BME280;63641;46.526;24.612;2023-04-10T08:34:26;97576.75;;;13.22;50.59
75146;BME280;63641;46.526;24.612;2023-04-10T08:36:53;97571.56;;;13.26;50.55
75146;BME280;63641;46.526;24.612;2023-04-10T08:39:20;97579.00;;;13.39;50.24
75146;BME280;63641;46.526;24.612;2023-04-10T08:41:47;97570.25;;;13.42;49.78
75146;BME280;63641;46.526;24.612;2023-04-10T08:44:15;97562.41;;;13.41;49.31
75146;BME280;63641;46.526;24.612;2023-04-10T08:46:43;97564.31;;;13.40;48.63
75146;BME280;63641;46.526;24.612;2023-04-10T08:49:16;97560.94;;;13.48;48.49
75146;BME280;63641;46.526;24.612;2023-04-10T08:51:55;97554.81;;;13.57;47.63
75146;BME280;63641;46.526;24.612;2023-04-10T08:54:32;97550.72;;;13.59;47.35
75146;BME280;63641;46.526;24.612;2023-04-10T08:57:00;97556.28;;;13.68;46.92
75146;BME280;63641;46.526;24.612;2023-04-10T08:59:28;97541.34;;;13.65;46.15
75146;BME280;63641;46.526;24.612;2023-04-10T09:01:57;97548.44;;;13.66;46.11
75146;BME280;63641;46.526;24.612;2023-04-10T09:04:25;97541.00;;;13.72;46.00
75146;BME280;63641;46.526;24.612;2023-04-10T09:06:52;97542.22;;;13.80;45.54
75146;BME280;63641;46.526;24.612;2023-04-10T09:09:19;97535.03;;;13.89;45.49
75146;BME280;63641;46.526;24.612;2023-04-10T09:14:26;97529.44;;;14.13;44.86
75146;BME280;63641;46.526;24.612;2023-04-10T09:17:15;97533.09;;;14.22;44.77
75146;BME280;63641;46.526;24.612;2023-04-10T09:19:44;97519.78;;;14.20;44.80
75146;BME280;63641;46.526;24.612;2023-04-10T09:22:11;97522.91;;;14.27;44.57
75146;BME280;63641;46.526;24.612;2023-04-10T09:24:40;97520.59;;;14.35;44.28
75146;BME280;63641;46.526;24.612;2023-04-10T09:27:08;97520.59;;;14.35;43.96
75146;BME280;63641;46.526;24.612;2023-04-10T09:32:13;97527.31;;;14.56;43.42
75146;BME280;63641;46.526;24.612;2023-04-10T09:34:54;97520.16;;;14.60;43.26
75146;BME280;63641;46.526;24.612;2023-04-10T09:37:33;97519.44;;;14.68;43.03
75146;BME280;63641;46.526;24.612;2023-04-10T09:40:01;97516.81;;;14.63;43.15
75146;BME280;63641;46.526;24.612;2023-04-10T09:42:33;97505.81;;;14.82;42.82
75146;BME280;63641;46.526;24.612;2023-04-10T09:45:00;97505.19;;;14.99;42.69
75146;BME280;63641;46.526;24.612;2023-04-10T09:47:27;97500.81;;;15.12;42.47
75146;BME280;63641;46.526;24.612;2023-04-10T09:49:58;97501.09;;;15.24;41.97
75146;BME280;63641;46.526;24.612;2023-04-10T09:52:35;97508.25;;;15.34;41.83
75146;BME280;63641;46.526;24.612;2023-04-10T09:55:04;97498.41;;;15.46;41.51
75146;BME280;63641;46.526;24.612;2023-04-10T09:57:34;97497.78;;;15.50;41.42
75146;BME280;63641;46.526;24.612;2023-04-10T10:00:03;97489.72;;;15.44;41.46
75146;BME280;63641;46.526;24.612;2023-04-10T10:02:36;97497.78;;;15.50;41.35
75146;BME280;63641;46.526;24.612;2023-04-10T10:05:06;97494.84;;;15.46;41.54
75146;BME280;63641;46.526;24.612;2023-04-10T10:07:34;97487.50;;;15.46;41.23
75146;BME280;63641;46.526;24.612;2023-04-10T10:10:05;97489.16;;;15.56;40.76
75146;BME280;63641;46.526;24.612;2023-04-10T10:12:38;97494.00;;;15.59;40.18
75146;BME280;63641;46.526;24.612;2023-04-10T10:17:45;97487.06;;;15.53;40.02
75146;BME280;63641;46.526;24.612;2023-04-10T10:20:19;97488.56;;;15.59;40.31
75146;BME280;63641;46.526;24.612;2023-04-10T10:22:49;97484.69;;;15.74;39.84
75146;BME280;63641;46.526;24.612;2023-04-10T10:25:17;97482.50;;;15.85;39.00
75146;BME280;63641;46.526;24.612;2023-04-10T10:27:45;97478.09;;;15.75;38.29
75146;BME280;63641;46.526;24.612;2023-04-10T10:30:16;97477.03;;;15.62;37.73
75146;BME280;63641;46.526;24.612;2023-04-10T10:32:57;97473.03;;;15.46;37.81
75146;BME280;63641;46.526;24.612;2023-04-10T10:35:25;97482.97;;;15.42;37.84
75146;BME280;63641;46.526;24.612;2023-04-10T10:37:59;97471.81;;;15.30;38.51
75146;BME280;63641;46.526;24.612;2023-04-10T10:40:31;97462.03;;;15.29;38.20
75146;BME280;63641;46.526;24.612;2023-04-10T10:48:27;97469.13;;;15.75;38.20
75146;BME280;63641;46.526;24.612;2023-04-10T10:50:55;97472.06;;;15.87;38.21
75146;BME280;63641;46.526;24.612;2023-04-10T10:53:37;97465.44;;;16.02;37.87
75146;BME280;63641;46.526;24.612;2023-04-10T10:58:48;97460.53;;;15.90;37.51
75146;BME280;63641;46.526;24.612;2023-04-10T11:01:16;97463.78;;;15.69;37.77
75146;BME280;63641;46.526;24.612;2023-04-10T11:03:43;97460.72;;;15.49;38.24
75146;BME280;63641;46.526;24.612;2023-04-10T11:06:14;97456.56;;;15.29;38.44
75146;BME280;63641;46.526;24.612;2023-04-10T11:08:52;97459.47;;;15.10;38.40
75146;BME280;63641;46.526;24.612;2023-04-10T11:11:20;97451.91;;;14.93;38.56
75146;BME280;63641;46.526;24.612;2023-04-10T11:16:19;97439.13;;;14.80;38.20
75146;BME280;63641;46.526;24.612;2023-04-10T11:19:00;97441.75;;;14.85;37.84
75146;BME280;63641;46.526;24.612;2023-04-10T11:21:59;97435.00;;;14.82;37.84
75146;BME280;63641;46.526;24.612;2023-04-10T11:24:26;97447.81;;;14.82;38.05
75146;BME280;63641;46.526;24.612;2023-04-10T11:26:54;97435.91;;;14.78;37.96
75146;BME280;63641;46.526;24.612;2023-04-10T11:31:59;97442.16;;;14.78;37.44
75146;BME280;63641;46.526;24.612;2023-04-10T11:34:27;97442.47;;;14.77;37.75
75146;BME280;63641;46.526;24.612;2023-04-10T11:36:56;97431.06;;;14.74;37.67
75146;BME280;63641;46.526;24.612;2023-04-10T11:39:24;97421.91;;;14.70;37.55
75146;BME280;63641;46.526;24.612;2023-04-10T11:41:52;97430.06;;;14.70;37.51
75146;BME280;63641;46.526;24.612;2023-04-10T11:44:33;97421.38;;;14.68;37.25
75146;BME280;63641;46.526;24.612;2023-04-10T11:47:05;97423.63;;;14.66;37.46
75146;BME280;63641;46.526;24.612;2023-04-10T11:49:33;97425.94;;;14.73;38.45
75146;BME280;63641;46.526;24.612;2023-04-10T11:52:00;97422.16;;;14.83;38.94
75146;BME280;63641;46.526;24.612;2023-04-10T11:54:28;97417.91;;;14.90;38.49
75146;BME280;63641;46.526;24.612;2023-04-10T11:56:58;97414.72;;;14.88;38.29
75146;BME280;63641;46.526;24.612;2023-04-10T11:59:27;97413.38;;;14.86;38.58
75146;BME280;63641;46.526;24.612;2023-04-10T12:02:14;97406.81;;;14.87;38.38
75146;BME280;63641;46.526;24.612;2023-04-10T12:04:43;97408.06;;;14.81;38.39
75146;BME280;63641;46.526;24.612;2023-04-10T12:07:10;97405.84;;;14.69;38.25
75146;BME280;63641;46.526;24.612;2023-04-10T12:09:37;97385.84;;;14.51;38.02
75146;BME280;63641;46.526;24.612;2023-04-10T12:12:06;97404.06;;;14.64;37.73
75146;BME280;63641;46.526;24.612;2023-04-10T12:14:37;97403.25;;;14.64;37.57
75146;BME280;63641;46.526;24.612;2023-04-10T12:17:06;97398.22;;;14.57;37.22
75146;BME280;63641;46.526;24.612;2023-04-10T12:19:34;97405.78;;;14.60;37.46
75146;BME280;63641;46.526;24.612;2023-04-10T12:22:01;97388.13;;;14.58;37.55
75146;BME280;63641;46.526;24.612;2023-04-10T12:24:45;97390.16;;;14.66;37.68
75146;BME280;63641;46.526;24.612;2023-04-10T12:29:49;97386.38;;;14.76;37.39
75146;BME280;63641;46.526;24.612;2023-04-10T12:32:17;97377.81;;;14.68;37.48
75146;BME280;63641;46.526;24.612;2023-04-10T12:34:54;97381.84;;;14.71;37.79
75146;BME280;63641;46.526;24.612;2023-04-10T12:37:48;97375.28;;;14.72;37.28
75146;BME280;63641;46.526;24.612;2023-04-10T12:40:16;97378.19;;;14.76;37.21
75146;BME280;63641;46.526;24.612;2023-04-10T12:42:43;97370.53;;;14.78;37.04
75146;BME280;63641;46.526;24.612;2023-04-10T12:45:10;97372.16;;;14.79;37.26
75146;BME280;63641;46.526;24.612;2023-04-10T12:47:47;97367.06;;;14.86;37.11
75146;BME280;63641;46.526;24.612;2023-04-10T12:50:16;97364.88;;;14.88;37.28
75146;BME280;63641;46.526;24.612;2023-04-10T12:52:45;97365.72;;;14.97;37.07
75146;BME280;63641;46.526;24.612;2023-04-10T12:55:40;97364.97;;;15.05;36.82
75146;BME280;63641;46.526;24.612;2023-04-10T12:58:15;97356.69;;;15.10;36.67
75146;BME280;63641;46.526;24.612;2023-04-10T13:00:43;97351.13;;;15.15;36.59
75146;BME280;63641;46.526;24.612;2023-04-10T13:03:10;97355.34;;;15.21;37.04
75146;BME280;63641;46.526;24.612;2023-04-10T13:05:38;97352.78;;;15.25;37.15
75146;BME280;63641;46.526;24.612;2023-04-10T13:08:04;97357.31;;;15.30;36.82
75146;BME280;63641;46.526;24.612;2023-04-10T13:10:31;97349.31;;;15.33;36.63
75146;BME280;63641;46.526;24.612;2023-04-10T13:12:58;97345.78;;;15.33;36.24
75146;BME280;63641;46.526;24.612;2023-04-10T13:15:25;97347.22;;;15.30;35.76
75146;BME280;63641;46.526;24.612;2023-04-10T13:17:52;97343.69;;;15.30;35.60
75146;BME280;63641;46.526;24.612;2023-04-10T13:20:21;97336.63;;;15.29;35.18
75146;BME280;63641;46.526;24.612;2023-04-10T13:22:47;97340.34;;;15.33;35.14
75146;BME280;63641;46.526;24.612;2023-04-10T13:25:14;97338.72;;;15.32;35.04
75146;BME280;63641;46.526;24.612;2023-04-10T13:27:41;97334.88;;;15.33;34.93
75146;BME280;63641;46.526;24.612;2023-04-10T13:30:08;97329.53;;;15.28;35.00
75146;BME280;63641;46.526;24.612;2023-04-10T13:32:35;97335.31;;;15.26;34.89
75146;BME280;63641;46.526;24.612;2023-04-10T13:35:02;97327.28;;;15.21;34.99
75146;BME280;63641;46.526;24.612;2023-04-10T13:37:29;97316.50;;;15.16;34.82
75146;BME280;63641;46.526;24.612;2023-04-10T13:39:56;97322.44;;;15.18;34.89
75146;BME280;63641;46.526;24.612;2023-04-10T13:42:22;97313.53;;;15.04;34.70
75146;BME280;63641;46.526;24.612;2023-04-10T13:44:49;97327.63;;;15.06;34.52